createdAt,value
2018-08-11T00:00:16.523Z,99.90
2018-08-11T00:02:44.896Z,99.90
2018-08-11T00:05:13.182Z,99.90
2018-08-11T00:07:42.043Z,99.90
2018-08-11T00:10:11.747Z,99.90
2018-08-11T00:12:40.155Z,99.90
2018-08-11T00:15:11.216Z,99.90
2018-08-11T00:17:39.828Z,99.90
2018-08-11T00:20:10.784Z,99.90
2018-08-11T00:22:39.994Z,99.90
2018-08-11T00:25:09.239Z,99.90
2018-08-11T00:27:37.839Z,99.90
2018-08-11T00:30:09.593Z,99.90
2018-08-11T00:32:38.145Z,99.90
2018-08-11T00:35:08.595Z,99.90
2018-08-11T00:37:37.187Z,99.90
2018-08-11T00:40:10.360Z,99.90
2018-08-11T00:42:39.102Z,99.90
2018-08-11T00:45:09.791Z,99.90
2018-08-11T00:47:38.092Z,99.90
2018-08-11T00:50:08.761Z,99.90
2018-08-11T00:52:37.615Z,99.90
2018-08-11T00:55:07.971Z,99.90
2018-08-11T00:57:36.263Z,99.90
2018-08-11T01:00:07.762Z,99.90
2018-08-11T01:02:36.396Z,99.90
2018-08-11T01:05:06.208Z,99.90
2018-08-11T01:07:34.691Z,99.90
2018-08-11T01:10:02.985Z,99.90
2018-08-11T01:12:31.268Z,99.90
2018-08-11T01:14:59.973Z,99.90
2018-08-11T01:17:28.445Z,99.90
2018-08-11T01:19:57.053Z,99.90
2018-08-11T01:22:25.675Z,99.90
2018-08-11T01:24:54.443Z,99.90
2018-08-11T01:27:23.415Z,99.90
2018-08-11T01:29:52.812Z,99.90
2018-08-11T01:32:21.196Z,99.90
2018-08-11T01:34:50.152Z,99.90
2018-08-11T01:37:18.759Z,99.90
2018-08-11T01:39:47.067Z,99.90
2018-08-11T01:42:15.787Z,99.90
2018-08-11T01:44:44.360Z,99.90
2018-08-11T01:47:12.678Z,99.90
2018-08-11T01:49:41.322Z,99.90
2018-08-11T01:52:09.924Z,99.90
2018-08-11T01:54:38.435Z,99.90
2018-08-11T01:57:06.995Z,99.90
2018-08-11T01:59:35.939Z,99.90
2018-08-11T02:02:04.549Z,99.90
2018-08-11T02:04:33.163Z,99.90
2018-08-11T02:07:01.457Z,99.90
2018-08-11T02:09:29.850Z,99.90
2018-08-11T02:11:58.687Z,99.90
2018-08-11T02:14:27.623Z,99.90
2018-08-11T02:16:55.903Z,99.90
2018-08-11T02:19:24.815Z,99.90
2018-08-11T02:21:53.532Z,99.90
2018-08-11T02:24:22.124Z,99.90
2018-08-11T02:26:50.772Z,99.90
2018-08-11T02:29:19.312Z,99.90
2018-08-11T02:31:47.999Z,99.90
2018-08-11T02:34:16.352Z,99.90
2018-08-11T02:36:44.767Z,99.90
2018-08-11T02:39:15.148Z,99.90
2018-08-11T02:41:43.992Z,99.90
2018-08-11T02:44:12.701Z,99.90
2018-08-11T02:46:41.708Z,99.90
2018-08-11T02:49:10.174Z,99.90
2018-08-11T02:51:39.121Z,99.90
2018-08-11T02:54:08.336Z,99.90
2018-08-11T02:56:36.724Z,99.90
2018-08-11T02:59:05.708Z,99.90
2018-08-11T03:01:34.291Z,99.90
2018-08-11T03:04:02.712Z,99.90
2018-08-11T03:06:30.985Z,99.90
2018-08-11T03:08:59.264Z,99.90
2018-08-11T03:11:28.204Z,99.90
2018-08-11T03:13:56.493Z,99.90
2018-08-11T03:16:24.952Z,99.90
2018-08-11T03:18:53.909Z,99.90
2018-08-11T03:21:22.348Z,99.90
2018-08-11T03:23:51.631Z,99.90
2018-08-11T03:26:20.451Z,99.90
2018-08-11T03:28:48.731Z,99.90
2018-08-11T03:31:17.224Z,99.90
2018-08-11T03:33:45.908Z,99.90
2018-08-11T03:36:14.322Z,99.90
2018-08-11T03:38:42.970Z,99.90
2018-08-11T03:41:11.366Z,99.90
2018-08-11T03:43:39.648Z,99.90
2018-08-11T03:46:08.222Z,99.90
2018-08-11T03:48:36.812Z,99.90
2018-08-11T03:51:05.878Z,99.90
2018-08-11T03:53:34.876Z,99.90
2018-08-11T03:56:03.252Z,99.90
2018-08-11T03:58:31.781Z,99.90
2018-08-11T04:01:00.725Z,99.90
2018-08-11T04:03:29.341Z,99.90
2018-08-11T04:05:57.879Z,99.90
2018-08-11T04:08:26.166Z,99.90
2018-08-11T04:10:55.375Z,99.90
2018-08-11T04:13:23.905Z,99.90
2018-08-11T04:15:52.335Z,99.90
2018-08-11T04:18:20.881Z,99.90
2018-08-11T04:20:49.219Z,99.90
2018-08-11T04:23:17.936Z,99.90
2018-08-11T04:25:46.816Z,99.90
2018-08-11T04:28:15.299Z,99.90
2018-08-11T04:30:43.964Z,99.90
2018-08-11T04:33:12.285Z,99.90
2018-08-11T04:35:40.698Z,99.90
2018-08-11T04:38:09.429Z,99.90
2018-08-11T04:40:37.827Z,99.90
2018-08-11T04:43:06.419Z,99.90
2018-08-11T04:45:35.015Z,99.90
2018-08-11T04:48:03.645Z,99.90
2018-08-11T04:50:31.902Z,99.90
2018-08-11T04:53:00.285Z,99.90
2018-08-11T04:55:28.883Z,99.90
2018-08-11T04:57:57.335Z,99.90
2018-08-11T05:00:25.624Z,99.90
2018-08-11T05:02:54.050Z,99.90
2018-08-11T05:05:22.340Z,99.90
2018-08-11T05:07:50.868Z,99.90
2018-08-11T05:10:19.138Z,99.90
2018-08-11T05:12:47.614Z,99.90
2018-08-11T05:15:16.160Z,99.90
2018-08-11T05:17:44.427Z,99.90
2018-08-11T05:20:12.697Z,99.90
2018-08-11T05:22:40.964Z,99.90
2018-08-11T05:25:09.252Z,99.90
2018-08-11T05:27:37.524Z,99.90
2018-08-11T05:30:06.865Z,99.90
2018-08-11T05:32:35.414Z,99.90
2018-08-11T05:35:04.119Z,99.90
2018-08-11T05:37:32.639Z,99.90
2018-08-11T05:40:01.076Z,99.90
2018-08-11T05:42:29.634Z,99.90
2018-08-11T05:44:57.898Z,99.90
2018-08-11T05:47:26.452Z,99.90
2018-08-11T05:49:55.291Z,99.90
2018-08-11T05:52:24.319Z,99.90
2018-08-11T05:54:52.591Z,99.90
2018-08-11T05:57:22.056Z,99.90
2018-08-11T05:59:50.320Z,99.90
2018-08-11T06:02:18.880Z,99.90
2018-08-11T06:04:47.197Z,99.90
2018-08-11T06:07:15.816Z,99.90
2018-08-11T06:09:44.395Z,99.90
2018-08-11T06:12:12.757Z,99.90
2018-08-11T06:14:41.640Z,99.90
2018-08-11T06:17:10.334Z,99.90
2018-08-11T06:19:38.656Z,99.90
2018-08-11T06:22:07.277Z,99.90
2018-08-11T06:24:35.724Z,99.90
2018-08-11T06:27:04.371Z,99.90
2018-08-11T06:29:33.064Z,99.90
2018-08-11T06:32:01.611Z,99.90
2018-08-11T06:34:30.406Z,99.90
2018-08-11T06:36:59.020Z,99.90
2018-08-11T06:39:27.426Z,99.90
2018-08-11T06:41:55.701Z,99.90
2018-08-11T06:44:24.208Z,99.90
2018-08-11T06:46:52.883Z,99.90
2018-08-11T06:49:21.555Z,99.90
2018-08-11T06:51:49.832Z,99.90
2018-08-11T06:54:18.192Z,99.90
2018-08-11T06:56:46.797Z,99.90
2018-08-11T06:59:15.438Z,99.90
2018-08-11T07:01:43.727Z,99.90
2018-08-11T07:04:12.259Z,99.90
2018-08-11T07:06:40.917Z,99.90
2018-08-11T07:09:10.694Z,99.90
2018-08-11T07:11:39.256Z,99.90
2018-08-11T07:14:07.685Z,99.90
2018-08-11T07:16:36.538Z,99.90
2018-08-11T07:19:05.210Z,99.90
2018-08-11T07:21:33.535Z,99.90
2018-08-11T07:24:02.251Z,99.90
2018-08-11T07:26:30.628Z,99.90
2018-08-11T07:28:59.068Z,99.90
2018-08-11T07:31:27.904Z,99.90
2018-08-11T07:33:56.494Z,99.90
2018-08-11T07:36:25.461Z,99.90
2018-08-11T07:38:54.061Z,99.90
2018-08-11T07:41:22.651Z,99.90
2018-08-11T07:43:50.911Z,99.90
2018-08-11T07:46:19.447Z,99.90
2018-08-11T07:48:47.705Z,99.90
2018-08-11T07:51:16.190Z,99.90
2018-08-11T07:53:44.819Z,99.90
2018-08-11T07:56:13.351Z,99.90
2018-08-11T07:58:41.831Z,99.90
2018-08-11T08:01:10.191Z,99.90
2018-08-11T08:03:38.621Z,99.90
2018-08-11T08:06:07.032Z,99.90
2018-08-11T08:08:35.314Z,99.90
2018-08-11T08:11:03.919Z,99.90
2018-08-11T08:13:32.525Z,99.90
2018-08-11T08:16:01.135Z,99.90
2018-08-11T08:18:29.726Z,99.90
2018-08-11T08:20:59.012Z,99.90
2018-08-11T08:23:28.063Z,99.90
2018-08-11T08:25:56.334Z,99.90
2018-08-11T08:28:25.055Z,99.90
2018-08-11T08:30:53.365Z,99.40
2018-08-11T08:33:21.902Z,99.30
2018-08-11T08:35:51.024Z,96.70
2018-08-11T08:38:19.308Z,96.90
2018-08-11T08:40:47.599Z,94.90
2018-08-11T08:43:16.247Z,96.30
2018-08-11T08:45:44.835Z,98.50
2018-08-11T08:48:13.095Z,98.20
2018-08-11T08:50:41.346Z,99.90
2018-08-11T08:53:10.006Z,99.90
2018-08-11T08:55:38.782Z,99.90
2018-08-11T08:58:07.252Z,97.10
2018-08-11T09:00:35.639Z,96.50
2018-08-11T09:03:04.163Z,92.80
2018-08-11T09:05:32.749Z,90.40
2018-08-11T09:08:01.254Z,92.40
2018-08-11T09:10:29.526Z,90.80
2018-08-11T09:12:57.976Z,90.50
2018-08-11T09:15:26.458Z,90.70
2018-08-11T09:17:55.102Z,90.20
2018-08-11T09:20:23.425Z,82.20
2018-08-11T09:22:52.504Z,85.30
2018-08-11T09:25:21.057Z,82.80
2018-08-11T09:27:49.588Z,78.10
2018-08-11T09:30:17.947Z,80.60
2018-08-11T09:32:46.376Z,81.20
2018-08-11T09:35:14.643Z,77.00
2018-08-11T09:37:43.271Z,73.00
2018-08-11T09:40:11.533Z,73.90
2018-08-11T09:42:40.115Z,78.90
2018-08-11T09:45:08.621Z,77.00
2018-08-11T09:47:37.319Z,72.50
2018-08-11T09:50:05.867Z,73.40
2018-08-11T09:52:34.148Z,81.00
2018-08-11T09:55:02.700Z,73.40
2018-08-11T09:57:31.239Z,75.90
2018-08-11T09:59:59.894Z,77.80
2018-08-11T10:02:28.171Z,71.40
2018-08-11T10:04:56.431Z,74.80
2018-08-11T10:07:24.931Z,74.90
2018-08-11T10:09:53.543Z,73.20
2018-08-11T10:12:22.179Z,76.00
2018-08-11T10:14:50.464Z,74.50
2018-08-11T10:17:18.736Z,75.70
2018-08-11T10:19:47.416Z,72.70
2018-08-11T10:22:15.996Z,72.60
2018-08-11T10:24:44.389Z,71.60
2018-08-11T10:27:13.035Z,67.30
2018-08-11T10:29:41.949Z,69.30
2018-08-11T10:32:10.920Z,70.70
2018-08-11T10:34:39.335Z,67.00
2018-08-11T10:37:07.762Z,65.90
2018-08-11T10:39:36.383Z,60.10
2018-08-11T10:42:04.643Z,65.80
2018-08-11T10:44:32.934Z,62.90
2018-08-11T10:47:01.242Z,66.30
2018-08-11T10:49:29.511Z,69.30
2018-08-11T10:51:57.800Z,67.90
2018-08-11T10:54:26.184Z,68.30
2018-08-11T10:56:54.443Z,67.40
2018-08-11T10:59:22.847Z,66.70
2018-08-11T11:01:51.179Z,64.40
2018-08-11T11:04:19.447Z,68.70
2018-08-11T11:06:47.719Z,69.00
2018-08-11T11:09:16.332Z,70.00
2018-08-11T11:11:44.596Z,71.50
2018-08-11T11:14:13.249Z,73.20
2018-08-11T11:16:41.990Z,66.60
2018-08-11T11:19:10.543Z,67.60
2018-08-11T11:21:39.220Z,67.70
2018-08-11T11:24:07.503Z,71.20
2018-08-11T11:26:36.128Z,68.40
2018-08-11T11:29:04.678Z,65.50
2018-08-11T11:31:33.363Z,62.60
2018-08-11T11:34:01.631Z,62.20
2018-08-11T11:36:29.915Z,60.00
2018-08-11T11:38:58.479Z,60.20
2018-08-11T11:41:26.828Z,55.60
2018-08-11T11:43:55.624Z,55.90
2018-08-11T11:46:24.164Z,58.40
2018-08-11T11:48:52.454Z,60.40
2018-08-11T11:51:21.351Z,63.00
2018-08-11T11:53:49.738Z,60.40
2018-08-11T11:56:18.344Z,59.70
2018-08-11T11:58:46.979Z,61.40
2018-08-11T12:01:15.584Z,58.70
2018-08-11T12:03:44.168Z,57.50
2018-08-11T12:06:12.439Z,56.50
2018-08-11T12:08:40.692Z,56.10
2018-08-11T12:11:08.986Z,57.30
2018-08-11T12:13:37.828Z,57.00
2018-08-11T12:16:06.210Z,57.30
2018-08-11T12:18:34.575Z,57.90
2018-08-11T12:21:03.185Z,57.80
2018-08-11T12:23:31.759Z,57.70
2018-08-11T12:26:00.039Z,53.90
2018-08-11T12:28:28.860Z,55.10
2018-08-11T12:30:57.478Z,56.80
2018-08-11T12:33:26.248Z,54.80
2018-08-11T12:35:54.687Z,53.80
2018-08-11T12:38:23.155Z,55.20
2018-08-11T12:40:51.767Z,58.30
2018-08-11T12:43:20.042Z,56.20
2018-08-11T12:45:48.472Z,57.60
2018-08-11T12:48:17.455Z,57.30
2018-08-11T12:50:45.725Z,54.80
2018-08-11T12:53:14.043Z,53.80
2018-08-11T12:55:42.744Z,54.10
2018-08-11T12:58:11.362Z,53.90
2018-08-11T13:00:40.226Z,54.10
2018-08-11T13:03:08.791Z,56.70
2018-08-11T13:05:37.445Z,54.40
2018-08-11T13:08:05.888Z,55.50
2018-08-11T13:10:34.175Z,53.70
2018-08-11T13:13:02.782Z,52.90
2018-08-11T13:15:31.772Z,53.60
2018-08-11T13:18:00.508Z,56.10
2018-08-11T13:20:29.475Z,54.60
2018-08-11T13:22:57.754Z,51.50
2018-08-11T13:25:26.131Z,52.00
2018-08-11T13:27:54.703Z,52.40
2018-08-11T13:30:22.991Z,54.60
2018-08-11T13:32:51.451Z,52.50
2018-08-11T13:35:20.108Z,49.40
2018-08-11T13:37:48.388Z,52.20
2018-08-11T13:40:16.663Z,57.30
2018-08-11T13:42:45.348Z,58.90
2018-08-11T13:45:13.961Z,57.50
2018-08-11T13:47:42.347Z,56.00
2018-08-11T13:50:11.024Z,52.40
2018-08-11T13:52:39.972Z,59.20
2018-08-11T13:55:08.961Z,55.40
2018-08-11T13:57:37.516Z,52.00
2018-08-11T14:00:07.202Z,53.20
2018-08-11T14:02:35.755Z,48.90
2018-08-11T14:05:04.067Z,50.60
2018-08-11T14:07:32.452Z,49.20
2018-08-11T14:10:00.888Z,46.70
2018-08-11T14:12:29.448Z,51.80
2018-08-11T14:14:58.350Z,53.50
2018-08-11T14:17:26.779Z,51.60
2018-08-11T14:19:55.116Z,55.60
2018-08-11T14:22:23.988Z,56.10
2018-08-11T14:24:52.255Z,56.40
2018-08-11T14:27:20.729Z,55.90
2018-08-11T14:29:49.312Z,54.20
2018-08-11T14:32:17.932Z,50.50
2018-08-11T14:34:46.364Z,54.30
2018-08-11T14:37:15.508Z,51.20
2018-08-11T14:39:44.043Z,50.50
2018-08-11T14:42:12.852Z,47.70
2018-08-11T14:44:41.135Z,49.70
2018-08-11T14:47:09.852Z,47.40
2018-08-11T14:49:38.452Z,47.30
2018-08-11T14:52:07.097Z,48.70
2018-08-11T14:54:35.618Z,49.20
2018-08-11T14:57:04.253Z,49.30
2018-08-11T14:59:32.915Z,50.60
2018-08-11T15:02:01.464Z,52.90
2018-08-11T15:04:30.416Z,51.20
2018-08-11T15:06:59.000Z,50.00
2018-08-11T15:09:27.478Z,49.00
2018-08-11T15:11:55.989Z,50.30
2018-08-11T15:14:24.610Z,49.10
2018-08-11T15:16:52.875Z,48.60
2018-08-11T15:19:21.525Z,47.00
2018-08-11T15:21:50.109Z,50.00
2018-08-11T15:24:18.796Z,51.20
2018-08-11T15:26:47.102Z,50.50
2018-08-11T15:29:15.673Z,52.00
2018-08-11T15:31:44.238Z,52.60
2018-08-11T15:34:12.849Z,46.50
2018-08-11T15:36:41.388Z,49.50
2018-08-11T15:39:12.252Z,46.80
2018-08-11T15:41:40.538Z,46.90
2018-08-11T15:44:09.078Z,45.40
2018-08-11T15:46:37.933Z,47.20
2018-08-11T15:49:06.731Z,48.70
2018-08-11T15:51:35.740Z,49.10
2018-08-11T15:54:04.101Z,49.90
2018-08-11T15:56:32.842Z,53.60
2018-08-11T15:59:01.116Z,51.10
2018-08-11T16:01:29.619Z,53.10
2018-08-11T16:03:58.101Z,53.90
2018-08-11T16:06:26.396Z,53.10
2018-08-11T16:08:54.917Z,53.00
2018-08-11T16:11:23.444Z,54.60
2018-08-11T16:13:51.718Z,54.40
2018-08-11T16:16:19.994Z,56.70
2018-08-11T16:18:48.276Z,56.10
2018-08-11T16:21:16.785Z,56.90
2018-08-11T16:23:45.075Z,58.60
2018-08-11T16:26:13.355Z,59.10
2018-08-11T16:28:41.669Z,58.30
2018-08-11T16:31:10.507Z,57.80
2018-08-11T16:33:39.412Z,59.10
2018-08-11T16:36:07.942Z,58.70
2018-08-11T16:38:36.626Z,58.40
2018-08-11T16:41:05.739Z,59.50
2018-08-11T16:43:34.291Z,61.20
2018-08-11T16:46:02.824Z,60.10
2018-08-11T16:48:31.505Z,58.30
2018-08-11T16:51:00.152Z,61.00
2018-08-11T16:53:28.494Z,60.00
2018-08-11T16:55:57.146Z,60.60
2018-08-11T16:58:25.670Z,62.60
2018-08-11T17:00:54.161Z,62.20
2018-08-11T17:03:22.865Z,60.20
2018-08-11T17:05:51.191Z,60.30
2018-08-11T17:08:20.252Z,63.70
2018-08-11T17:10:48.640Z,63.20
2018-08-11T17:13:17.304Z,62.60
2018-08-11T17:15:45.907Z,63.80
2018-08-11T17:18:14.395Z,63.80
2018-08-11T17:20:43.292Z,63.50
2018-08-11T17:23:12.336Z,63.80
2018-08-11T17:25:40.811Z,67.20
2018-08-11T17:28:09.257Z,68.30
2018-08-11T17:30:37.525Z,68.70
2018-08-11T17:33:05.837Z,68.30
2018-08-11T17:35:34.286Z,65.80
2018-08-11T17:38:03.023Z,66.60
2018-08-11T17:40:31.915Z,67.40
2018-08-11T17:43:00.214Z,66.50
2018-08-11T17:45:28.756Z,70.00
2018-08-11T17:47:57.378Z,69.90
2018-08-11T17:50:25.673Z,68.60
2018-08-11T17:52:53.946Z,69.30
2018-08-11T17:55:22.282Z,68.60
2018-08-11T17:57:51.319Z,70.10
2018-08-11T18:00:19.587Z,69.60
2018-08-11T18:02:47.848Z,70.60
2018-08-11T18:05:16.484Z,69.90
2018-08-11T18:07:45.030Z,72.80
2018-08-11T18:10:13.986Z,72.40
2018-08-11T18:12:42.409Z,72.30
2018-08-11T18:15:11.108Z,73.50
2018-08-11T18:17:39.495Z,74.20
2018-08-11T18:20:07.792Z,71.40
2018-08-11T18:22:36.620Z,73.60
2018-08-11T18:25:05.468Z,73.30
2018-08-11T18:27:33.737Z,74.50
2018-08-11T18:30:01.995Z,77.00
2018-08-11T18:32:30.285Z,75.60
2018-08-11T18:34:58.579Z,76.00
2018-08-11T18:37:26.843Z,78.20
2018-08-11T18:39:55.358Z,79.20
2018-08-11T18:42:23.735Z,81.90
2018-08-11T18:44:52.201Z,80.30
2018-08-11T18:47:20.732Z,82.90
2018-08-11T18:49:49.642Z,83.90
2018-08-11T18:52:17.910Z,84.00
2018-08-11T18:54:46.335Z,82.60
2018-08-11T18:57:14.671Z,82.30
2018-08-11T18:59:43.373Z,84.70
2018-08-11T19:02:11.719Z,83.90
2018-08-11T19:04:39.995Z,83.90
2018-08-11T19:07:08.273Z,87.60
2018-08-11T19:09:36.737Z,88.90
2018-08-11T19:12:05.341Z,87.10
2018-08-11T19:14:34.023Z,90.40
2018-08-11T19:17:02.559Z,89.20
2018-08-11T19:19:30.843Z,89.80
2018-08-11T19:21:59.643Z,90.60
2018-08-11T19:24:28.512Z,92.20
2018-08-11T19:26:57.042Z,91.70
2018-08-11T19:29:25.324Z,91.80
2018-08-11T19:31:53.597Z,93.30
2018-08-11T19:34:21.871Z,94.20
2018-08-11T19:36:50.811Z,94.40
2018-08-11T19:39:19.600Z,94.30
2018-08-11T19:41:48.460Z,94.00
2018-08-11T19:44:16.880Z,94.50
2018-08-11T19:46:45.506Z,95.90
2018-08-11T19:49:14.110Z,96.50
2018-08-11T19:51:42.824Z,97.20
2018-08-11T19:54:11.115Z,98.60
2018-08-11T19:56:39.735Z,97.40
2018-08-11T19:59:08.011Z,98.90
2018-08-11T20:01:36.446Z,99.30
2018-08-11T20:04:04.974Z,99.90
2018-08-11T20:06:33.592Z,99.60
2018-08-11T20:09:01.868Z,99.90
2018-08-11T20:11:30.509Z,99.10
2018-08-11T20:13:58.787Z,99.70
2018-08-11T20:16:27.415Z,99.50
2018-08-11T20:18:56.097Z,99.90
2018-08-11T20:21:24.585Z,99.90
2018-08-11T20:23:52.991Z,99.90
2018-08-11T20:26:21.673Z,99.90
2018-08-11T20:28:50.330Z,99.90
2018-08-11T20:31:18.992Z,99.90
2018-08-11T20:33:47.412Z,99.90
2018-08-11T20:36:16.324Z,99.90
2018-08-11T20:38:44.616Z,99.90
2018-08-11T20:41:13.240Z,99.90
2018-08-11T20:43:41.618Z,99.90
2018-08-11T20:46:10.313Z,99.90
2018-08-11T20:48:38.913Z,99.90
2018-08-11T20:51:07.604Z,99.90
2018-08-11T20:53:36.664Z,99.90
2018-08-11T20:56:05.045Z,99.90
2018-08-11T20:58:33.627Z,99.90
2018-08-11T21:01:02.088Z,99.90
2018-08-11T21:03:30.816Z,99.90
2018-08-11T21:05:59.744Z,99.90
2018-08-11T21:08:28.026Z,99.90
2018-08-11T21:10:56.311Z,99.90
2018-08-11T21:13:25.018Z,99.90
2018-08-11T21:15:53.659Z,99.90
2018-08-11T21:18:21.932Z,99.90
2018-08-11T21:20:50.511Z,99.90
2018-08-11T21:23:19.256Z,99.90
2018-08-11T21:25:47.555Z,99.90
2018-08-11T21:28:15.836Z,99.90
2018-08-11T21:30:44.738Z,99.90
2018-08-11T21:33:13.120Z,99.90
2018-08-11T21:35:41.725Z,99.90
2018-08-11T21:38:10.700Z,99.90
2018-08-11T21:40:39.325Z,99.90
2018-08-11T21:43:08.111Z,99.90
2018-08-11T21:45:36.420Z,99.90
2018-08-11T21:48:05.145Z,99.90
2018-08-11T21:50:33.758Z,99.90
2018-08-11T21:53:02.262Z,99.90
2018-08-11T21:55:30.871Z,99.90
2018-08-11T21:57:59.325Z,99.90
2018-08-11T22:00:35.597Z,99.90
2018-08-11T22:03:04.273Z,99.90
2018-08-11T22:05:32.567Z,99.90
2018-08-11T22:08:01.888Z,99.90
2018-08-11T22:10:30.431Z,99.90
2018-08-11T22:12:58.739Z,99.90
2018-08-11T22:15:27.384Z,99.90
2018-08-11T22:17:55.996Z,99.90
2018-08-11T22:20:24.575Z,99.90
2018-08-11T22:22:52.851Z,99.90
2018-08-11T22:25:21.863Z,99.90
2018-08-11T22:27:50.404Z,99.90
2018-08-11T22:30:18.910Z,99.90
2018-08-11T22:32:47.176Z,99.90
2018-08-11T22:35:15.796Z,99.90
2018-08-11T22:37:44.935Z,99.90
2018-08-11T22:40:13.275Z,99.90
2018-08-11T22:42:41.933Z,99.90
2018-08-11T22:45:11.532Z,99.90
2018-08-11T22:47:40.201Z,99.90
2018-08-11T22:50:10.820Z,99.90
2018-08-11T22:52:39.875Z,99.90
2018-08-11T22:55:08.529Z,99.90
2018-08-11T22:57:37.161Z,99.90
2018-08-11T23:00:10.712Z,99.90
2018-08-11T23:02:38.971Z,99.90
2018-08-11T23:05:07.483Z,99.90
2018-08-11T23:07:36.084Z,99.90
2018-08-11T23:10:05.680Z,99.90
2018-08-11T23:12:34.946Z,99.90
2018-08-11T23:15:03.340Z,99.90
2018-08-11T23:17:32.123Z,99.90
2018-08-11T23:20:01.319Z,99.90
2018-08-11T23:22:30.143Z,99.90
2018-08-11T23:24:58.696Z,99.90
2018-08-11T23:27:27.307Z,99.90
2018-08-11T23:29:56.030Z,99.90
2018-08-11T23:32:24.571Z,99.90
2018-08-11T23:34:53.126Z,99.90
2018-08-11T23:37:22.062Z,99.90
2018-08-11T23:39:50.379Z,99.90
2018-08-11T23:42:18.793Z,99.90
2018-08-11T23:44:47.805Z,99.90
2018-08-11T23:47:17.542Z,99.90
2018-08-11T23:49:45.809Z,99.90
2018-08-11T23:52:14.942Z,99.90
2018-08-11T23:54:43.563Z,99.90
2018-08-11T23:57:12.359Z,99.90
2018-08-11T23:59:41.248Z,99.90
